createdAt,value
2022-08-22T00:01:46.442Z,9.57
2022-08-22T00:02:46.390Z,7.63
2022-08-22T00:02:55.898Z,7.78
2022-08-22T00:02:59.228Z,9.57
2022-08-22T00:02:59.456Z,9.48
2022-08-22T00:04:17.366Z,9.75
2022-08-22T00:07:08.681Z,9.75
2022-08-22T00:09:49.786Z,9.25
2022-08-22T00:12:50.899Z,9.38
2022-08-22T00:15:42.225Z,9.00
2022-08-22T00:18:32.776Z,8.90
2022-08-22T00:21:23.040Z,9.30
2022-08-22T00:24:26.440Z,9.48
2022-08-22T00:27:02.281Z,9.85
2022-08-22T00:29:56.060Z,9.65
2022-08-22T00:32:29.821Z,9.95
2022-08-22T00:35:24.120Z,9.65
2022-08-22T00:38:09.556Z,10.00
2022-08-22T00:40:39.741Z,9.73
2022-08-22T00:43:38.276Z,10.25
2022-08-22T00:47:00.196Z,10.70
2022-08-22T00:49:43.928Z,10.60
2022-08-22T00:52:46.261Z,11.00
2022-08-22T00:55:42.761Z,11.48
2022-08-22T00:58:31.541Z,11.13
2022-08-22T01:01:12.030Z,11.77
2022-08-22T01:03:47.075Z,11.80
2022-08-22T01:06:32.436Z,11.93
2022-08-22T01:09:22.976Z,11.90
2022-08-22T01:12:15.201Z,12.45
2022-08-22T01:14:51.675Z,12.25
2022-08-22T01:17:45.343Z,12.27
2022-08-22T01:20:32.576Z,12.27
2022-08-22T01:23:08.750Z,12.85
2022-08-22T01:25:54.940Z,12.65
2022-08-22T01:28:44.835Z,12.55
2022-08-22T01:31:54.660Z,13.20
2022-08-22T01:34:59.520Z,13.13
2022-08-22T01:37:45.682Z,13.20
2022-08-22T01:40:38.000Z,13.73
2022-08-22T01:43:59.972Z,13.43
2022-08-22T01:46:46.580Z,13.52
2022-08-22T01:49:31.944Z,13.45
2022-08-22T01:52:19.498Z,13.13
2022-08-22T01:54:56.500Z,13.50
2022-08-22T01:57:25.037Z,14.25
2022-08-22T01:59:59.280Z,14.35
2022-08-22T02:02:41.016Z,14.38
2022-08-22T02:05:23.162Z,13.75
2022-08-22T02:07:56.583Z,13.65
2022-08-22T02:11:02.643Z,13.90
2022-08-22T02:13:53.075Z,14.13
2022-08-22T02:16:41.035Z,13.05
2022-08-22T02:19:39.041Z,12.75
2022-08-22T02:22:26.593Z,13.05
2022-08-22T02:25:08.947Z,12.43
2022-08-22T02:27:47.319Z,13.25
2022-08-22T02:30:21.337Z,13.07
2022-08-22T02:33:05.867Z,12.82
2022-08-22T02:36:03.303Z,14.25
2022-08-22T02:38:56.259Z,12.70
2022-08-22T02:41:46.285Z,12.50
2022-08-22T02:44:25.796Z,12.60
2022-08-22T02:46:56.179Z,12.63
2022-08-22T02:49:29.583Z,12.43
2022-08-22T02:52:09.379Z,12.10
2022-08-22T02:54:47.782Z,12.85
2022-08-22T02:57:49.499Z,13.35
2022-08-22T03:00:27.659Z,14.60
2022-08-22T03:03:00.463Z,13.75
2022-08-22T03:05:42.359Z,13.45
2022-08-22T03:08:29.101Z,12.98
2022-08-22T03:11:18.177Z,11.98
2022-08-22T03:14:00.763Z,13.18
2022-08-22T03:16:53.007Z,12.77
2022-08-22T03:19:31.658Z,13.32
2022-08-22T03:22:07.564Z,13.30
2022-08-22T03:25:02.200Z,13.32
2022-08-22T03:27:36.169Z,13.02
2022-08-22T03:30:22.127Z,13.63
2022-08-22T03:32:55.034Z,16.38
2022-08-22T03:35:39.568Z,16.80
2022-08-22T03:38:32.157Z,16.73
2022-08-22T03:41:08.633Z,16.02
2022-08-22T03:43:44.739Z,15.27
2022-08-22T03:46:18.460Z,15.70
2022-08-22T03:49:06.549Z,15.93
2022-08-22T03:51:59.227Z,15.82
2022-08-22T03:55:24.609Z,15.30
2022-08-22T03:57:51.977Z,16.40
2022-08-22T04:00:48.054Z,16.45
2022-08-22T04:03:46.787Z,15.95
2022-08-22T04:06:23.267Z,16.80
2022-08-22T04:09:43.316Z,16.50
2022-08-22T04:12:58.835Z,16.73
2022-08-22T04:15:44.610Z,17.20
2022-08-22T04:18:15.035Z,15.77
2022-08-22T04:21:00.577Z,17.52
2022-08-22T04:23:40.418Z,16.70
2022-08-22T04:26:14.368Z,17.35
2022-08-22T04:29:27.517Z,16.33
2022-08-22T04:32:17.007Z,16.75
2022-08-22T04:35:09.914Z,17.02
2022-08-22T04:37:56.714Z,17.10
2022-08-22T04:40:35.783Z,17.23
2022-08-22T04:43:14.921Z,17.35
2022-08-22T04:45:59.609Z,18.05
2022-08-22T04:48:34.831Z,17.20
2022-08-22T04:51:23.534Z,18.30
2022-08-22T04:54:36.215Z,16.95
2022-08-22T04:57:15.725Z,17.05
2022-08-22T04:59:44.351Z,16.15
2022-08-22T05:02:20.638Z,17.30
2022-08-22T05:04:57.311Z,17.08
2022-08-22T05:07:33.912Z,16.55
2022-08-22T05:10:18.781Z,16.02
2022-08-22T05:12:53.750Z,16.38
2022-08-22T05:15:24.869Z,16.38
2022-08-22T05:17:59.159Z,16.08
2022-08-22T05:20:28.854Z,15.60
2022-08-22T05:23:05.833Z,13.98
2022-08-22T05:25:36.430Z,14.35
2022-08-22T05:28:16.035Z,14.45
2022-08-22T05:30:47.985Z,14.07
2022-08-22T05:33:27.252Z,13.60
2022-08-22T05:36:01.624Z,13.80
2022-08-22T05:38:32.651Z,13.55
2022-08-22T05:41:08.934Z,14.18
2022-08-22T05:43:41.650Z,13.90
2022-08-22T05:46:18.528Z,14.00
2022-08-22T05:48:57.839Z,12.95
2022-08-22T05:51:32.572Z,13.70
2022-08-22T05:54:13.982Z,13.25
2022-08-22T05:56:53.694Z,12.48
2022-08-22T05:59:31.176Z,12.45
2022-08-22T06:02:21.538Z,12.75
2022-08-22T06:05:12.217Z,13.15
2022-08-22T06:07:47.095Z,13.95
2022-08-22T06:10:29.421Z,12.70
2022-08-22T06:13:05.720Z,12.95
2022-08-22T06:15:55.039Z,13.07
2022-08-22T06:18:26.735Z,13.00
2022-08-22T06:21:07.066Z,13.95
2022-08-22T06:23:51.225Z,13.98
2022-08-22T06:26:20.887Z,12.38
2022-08-22T06:28:55.208Z,12.75
2022-08-22T06:31:49.380Z,13.65
2022-08-22T06:34:24.689Z,12.90
2022-08-22T06:36:55.718Z,13.10
2022-08-22T06:39:24.799Z,13.32
2022-08-22T06:42:16.677Z,13.10
2022-08-22T06:44:50.785Z,12.50
2022-08-22T06:47:26.495Z,13.45
2022-08-22T06:50:02.339Z,13.55
2022-08-22T06:52:33.386Z,13.13
2022-08-22T06:55:06.227Z,13.90
2022-08-22T06:57:45.263Z,13.18
2022-08-22T07:00:16.089Z,12.32
2022-08-22T07:02:46.900Z,12.32
2022-08-22T07:05:24.665Z,13.10
2022-08-22T07:07:53.205Z,12.50
2022-08-22T07:10:22.467Z,12.95
2022-08-22T07:12:53.883Z,12.52
2022-08-22T07:15:37.364Z,12.35
2022-08-22T07:18:31.817Z,12.20
2022-08-22T07:21:08.131Z,12.98
2022-08-22T07:23:41.277Z,12.63
2022-08-22T07:26:28.602Z,12.75
2022-08-22T07:29:01.787Z,11.73
2022-08-22T07:31:38.932Z,11.60
2022-08-22T07:34:29.195Z,11.80
2022-08-22T07:36:56.430Z,12.30
2022-08-22T07:39:46.324Z,12.48
2022-08-22T07:42:19.032Z,12.35
2022-08-22T07:45:01.328Z,11.87
2022-08-22T07:48:04.698Z,11.88
2022-08-22T07:50:37.372Z,11.98
2022-08-22T07:53:44.784Z,12.35
2022-08-22T07:56:46.714Z,13.15
2022-08-22T07:59:18.361Z,11.68
2022-08-22T08:01:50.340Z,11.48
2022-08-22T08:04:25.100Z,12.00
2022-08-22T08:06:55.510Z,10.93
2022-08-22T08:09:23.936Z,11.02
2022-08-22T08:11:54.514Z,11.82
2022-08-22T08:14:24.039Z,11.52
2022-08-22T08:17:23.930Z,11.38
2022-08-22T08:19:52.214Z,10.82
2022-08-22T08:22:26.170Z,11.27
2022-08-22T08:24:57.529Z,11.27
2022-08-22T08:27:50.192Z,10.57
2022-08-22T08:30:21.524Z,10.33
2022-08-22T08:32:59.573Z,10.07
2022-08-22T08:38:44.095Z,10.10
2022-08-22T08:41:22.120Z,9.88
2022-08-22T08:44:15.163Z,9.63
2022-08-22T08:47:12.030Z,9.20
2022-08-22T08:49:45.074Z,8.50
2022-08-22T08:52:42.020Z,9.57
2022-08-22T08:55:21.971Z,10.23
2022-08-22T08:58:10.305Z,9.40
2022-08-22T09:01:31.268Z,9.52
2022-08-22T09:04:32.340Z,8.45
2022-08-22T09:07:25.881Z,8.82
2022-08-22T09:10:31.484Z,8.70
2022-08-22T09:13:11.881Z,9.07
2022-08-22T09:15:58.556Z,9.23
2022-08-22T09:18:32.313Z,9.93
2022-08-22T09:21:08.882Z,9.93
2022-08-22T09:24:14.069Z,9.38
2022-08-22T09:27:01.625Z,8.98
2022-08-22T09:29:54.481Z,9.18
2022-08-22T09:35:14.880Z,9.40
2022-08-22T09:38:14.987Z,9.82
2022-08-22T09:40:56.164Z,9.57
2022-08-22T09:43:39.583Z,10.25
2022-08-22T09:46:31.413Z,9.57
2022-08-22T09:49:17.337Z,9.90
2022-08-22T09:52:33.188Z,10.73
2022-08-22T09:55:25.211Z,17.95
2022-08-22T09:58:19.036Z,9.95
2022-08-22T10:01:19.388Z,9.60
2022-08-22T10:04:04.747Z,9.98
2022-08-22T10:07:03.159Z,9.27
2022-08-22T10:09:46.254Z,11.32
2022-08-22T10:12:24.760Z,9.73
2022-08-22T10:15:16.355Z,10.10
2022-08-22T10:18:20.914Z,9.90
2022-08-22T10:21:03.462Z,9.40
2022-08-22T10:23:46.012Z,9.00
2022-08-22T10:26:25.578Z,9.43
2022-08-22T10:29:35.159Z,7.97
2022-08-22T10:32:27.635Z,8.35
2022-08-22T10:35:01.685Z,8.48
2022-08-22T10:37:46.081Z,8.65
2022-08-22T10:40:16.827Z,8.20
2022-08-22T10:43:35.054Z,8.48
2022-08-22T10:46:14.445Z,8.18
2022-08-22T10:48:51.069Z,8.43
2022-08-22T10:51:42.185Z,8.02
2022-08-22T10:54:42.805Z,8.82
2022-08-22T10:57:31.481Z,9.85
2022-08-22T11:00:22.689Z,9.50
2022-08-22T11:03:21.799Z,8.30
2022-08-22T11:05:54.495Z,7.75
2022-08-22T11:08:46.208Z,7.80
2022-08-22T11:11:32.629Z,7.75
2022-08-22T11:14:24.600Z,7.88
2022-08-22T11:17:11.988Z,7.95
2022-08-22T11:20:09.154Z,8.45
2022-08-22T11:22:55.764Z,7.80
2022-08-22T11:25:58.466Z,8.23
2022-08-22T11:28:44.530Z,7.68
2022-08-22T11:31:39.688Z,7.57
2022-08-22T11:34:26.158Z,7.33
2022-08-22T11:36:56.888Z,8.25
2022-08-22T11:39:45.507Z,7.20
2022-08-22T11:42:31.546Z,7.88
2022-08-22T11:45:05.822Z,7.43
2022-08-22T11:47:40.576Z,6.15
2022-08-22T11:50:13.790Z,6.68
2022-08-22T11:52:44.502Z,7.15
2022-08-22T11:55:21.831Z,7.22
2022-08-22T11:57:55.021Z,6.60
2022-08-22T12:00:26.874Z,6.30
2022-08-22T12:03:12.880Z,6.53
2022-08-22T12:05:45.324Z,7.05
2022-08-22T12:08:30.381Z,7.18
2022-08-22T12:11:15.126Z,7.65
2022-08-22T12:14:06.530Z,7.03
2022-08-22T12:17:01.497Z,7.00
2022-08-22T12:20:15.076Z,6.75
2022-08-22T12:23:10.590Z,6.40
2022-08-22T12:26:05.155Z,6.00
2022-08-22T12:29:15.475Z,6.07
2022-08-22T12:32:04.716Z,6.18
2022-08-22T12:34:42.406Z,6.32
2022-08-22T12:37:21.640Z,6.65
2022-08-22T12:40:02.176Z,7.35
2022-08-22T12:43:04.383Z,7.15
2022-08-22T12:46:13.072Z,7.25
2022-08-22T12:48:55.430Z,7.40
2022-08-22T12:51:43.250Z,6.95
2022-08-22T12:54:26.950Z,7.35
2022-08-22T12:56:57.345Z,7.47
2022-08-22T12:59:28.559Z,7.28
2022-08-22T13:02:01.587Z,8.18
2022-08-22T13:04:34.243Z,7.65
2022-08-22T13:07:30.955Z,7.63
2022-08-22T13:10:17.358Z,7.97
2022-08-22T13:12:48.801Z,8.15
2022-08-22T13:15:28.808Z,7.80
2022-08-22T13:18:13.229Z,7.68
2022-08-22T13:20:50.689Z,8.20
2022-08-22T13:23:29.610Z,7.10
2022-08-22T13:26:32.026Z,7.47
2022-08-22T13:29:39.404Z,7.55
2022-08-22T13:32:05.042Z,7.28
2022-08-22T13:34:39.635Z,7.32
2022-08-22T13:37:13.516Z,7.15
2022-08-22T13:39:46.494Z,7.72
2022-08-22T13:42:27.872Z,6.85
2022-08-22T13:45:02.711Z,8.00
2022-08-22T13:47:34.601Z,6.72
2022-08-22T13:50:20.020Z,7.07
2022-08-22T13:52:55.656Z,6.95
2022-08-22T13:55:31.486Z,6.53
2022-08-22T13:58:17.462Z,7.20
2022-08-22T14:01:25.522Z,7.22
2022-08-22T14:04:28.318Z,6.75
2022-08-22T14:07:02.301Z,7.22
2022-08-22T14:09:51.325Z,7.43
2022-08-22T14:12:25.330Z,7.25
2022-08-22T14:15:08.047Z,6.47
2022-08-22T14:17:44.010Z,6.80
2022-08-22T14:20:32.229Z,6.28
2022-08-22T14:23:11.777Z,6.00
2022-08-22T14:25:43.406Z,6.22
2022-08-22T14:28:32.396Z,6.25
2022-08-22T14:31:23.304Z,6.65
2022-08-22T14:34:12.501Z,6.55
2022-08-22T14:36:42.948Z,6.55
2022-08-22T14:39:28.700Z,6.20
2022-08-22T14:42:17.946Z,6.68
2022-08-22T14:44:59.492Z,7.15
2022-08-22T14:47:54.924Z,7.03
2022-08-22T14:50:43.715Z,6.75
2022-08-22T14:53:18.770Z,7.10
2022-08-22T14:55:58.287Z,6.95
2022-08-22T14:58:27.725Z,6.97
2022-08-22T15:00:57.990Z,6.55
2022-08-22T15:03:35.259Z,6.60
2022-08-22T15:06:12.035Z,6.43
2022-08-22T15:08:42.285Z,6.53
2022-08-22T15:11:22.245Z,6.03
2022-08-22T15:13:55.907Z,6.35
2022-08-22T15:16:29.943Z,6.35
2022-08-22T15:18:59.579Z,6.50
2022-08-22T15:21:33.225Z,6.10
2022-08-22T15:24:14.229Z,6.63
2022-08-22T15:26:55.552Z,6.82
2022-08-22T15:29:26.799Z,6.05
2022-08-22T15:32:01.466Z,6.38
2022-08-22T15:34:39.667Z,7.05
2022-08-22T15:37:19.979Z,7.03
2022-08-22T15:40:15.086Z,7.15
2022-08-22T15:42:51.275Z,6.43
2022-08-22T15:45:28.880Z,6.80
2022-08-22T15:47:57.242Z,6.88
2022-08-22T15:50:39.794Z,7.07
2022-08-22T15:53:19.956Z,6.43
2022-08-22T15:56:05.487Z,6.55
2022-08-22T15:58:37.505Z,6.53
2022-08-22T16:01:19.037Z,6.50
2022-08-22T16:04:04.795Z,7.05
2022-08-22T16:06:53.159Z,6.28
2022-08-22T16:09:36.649Z,6.72
2022-08-22T16:12:33.380Z,6.88
2022-08-22T16:15:05.545Z,7.32
2022-08-22T16:17:42.779Z,7.30
2022-08-22T16:20:15.887Z,7.68
2022-08-22T16:22:58.987Z,7.68
2022-08-22T16:25:45.153Z,8.13
2022-08-22T16:28:57.909Z,7.30
2022-08-22T16:31:27.605Z,7.82
2022-08-22T16:34:18.030Z,7.93
2022-08-22T16:36:55.372Z,8.07
2022-08-22T16:39:22.645Z,8.73
2022-08-22T16:41:54.512Z,7.95
2022-08-22T16:44:30.783Z,7.93
2022-08-22T16:47:30.179Z,8.63
2022-08-22T16:50:09.744Z,8.57
2022-08-22T16:52:54.101Z,8.18
2022-08-22T16:55:30.435Z,8.98
2022-08-22T16:58:35.834Z,8.30
2022-08-22T17:01:30.570Z,8.55
2022-08-22T17:07:17.781Z,9.10
2022-08-22T17:09:45.089Z,8.38
2022-08-22T17:12:33.795Z,8.60
2022-08-22T17:15:21.619Z,8.50
2022-08-22T17:18:34.185Z,8.38
2022-08-22T17:21:18.975Z,7.88
2022-08-22T17:24:32.026Z,8.18
2022-08-22T17:27:31.575Z,8.27
2022-08-22T17:30:20.286Z,8.95
2022-08-22T17:33:02.849Z,8.70
2022-08-22T17:36:00.755Z,8.45
2022-08-22T17:39:29.945Z,7.97
2022-08-22T17:42:21.109Z,8.95
2022-08-22T17:45:36.125Z,8.63
2022-08-22T17:48:08.080Z,9.25
2022-08-22T17:50:58.335Z,9.27
2022-08-22T17:53:49.630Z,9.23
2022-08-22T17:56:34.678Z,8.70
2022-08-22T17:59:23.659Z,8.65
2022-08-22T18:02:13.829Z,8.88
2022-08-22T18:04:48.094Z,8.13
2022-08-22T18:07:15.418Z,8.82
2022-08-22T18:09:56.373Z,8.05
2022-08-22T18:12:45.618Z,9.27
2022-08-22T18:15:30.824Z,8.70
2022-08-22T18:18:19.335Z,9.18
2022-08-22T18:21:18.817Z,9.23
2022-08-22T18:23:52.356Z,9.40
2022-08-22T18:26:31.430Z,9.60
2022-08-22T18:29:19.193Z,9.75
2022-08-22T18:32:01.718Z,9.48
2022-08-22T18:34:40.667Z,10.52
2022-08-22T18:37:35.978Z,9.55
2022-08-22T18:40:07.167Z,9.32
2022-08-22T18:42:43.407Z,9.13
2022-08-22T18:45:48.806Z,9.63
2022-08-22T18:48:34.677Z,9.52
2022-08-22T18:51:26.115Z,10.30
2022-08-22T18:54:35.035Z,10.10
2022-08-22T18:57:30.966Z,10.25
2022-08-22T19:00:16.832Z,9.85
2022-08-22T19:03:03.829Z,9.93
2022-08-22T19:05:50.031Z,9.45
2022-08-22T19:08:36.775Z,9.77
2022-08-22T19:11:16.015Z,10.63
2022-08-22T19:14:17.496Z,11.25
2022-08-22T19:17:06.242Z,10.55
2022-08-22T19:20:00.795Z,12.00
2022-08-22T19:22:36.116Z,12.27
2022-08-22T19:25:15.639Z,13.13
2022-08-22T19:28:10.666Z,12.65
2022-08-22T19:30:43.196Z,13.15
2022-08-22T19:33:40.945Z,12.88
2022-08-22T19:36:30.041Z,12.13
2022-08-22T19:39:42.106Z,11.60
2022-08-22T19:42:28.046Z,13.38
2022-08-22T19:44:55.682Z,14.10
2022-08-22T19:47:27.024Z,13.23
2022-08-22T19:50:00.632Z,12.68
2022-08-22T19:52:44.995Z,14.23
2022-08-22T19:55:20.906Z,14.13
2022-08-22T19:57:55.498Z,13.57
2022-08-22T20:00:24.985Z,14.13
2022-08-22T20:03:17.453Z,13.93
2022-08-22T20:06:33.565Z,14.48
2022-08-22T20:09:08.172Z,14.43
2022-08-22T20:12:00.020Z,14.18
2022-08-22T20:14:31.007Z,14.27
2022-08-22T20:17:04.289Z,14.57
2022-08-22T20:22:42.732Z,14.27
2022-08-22T20:25:41.628Z,15.80
2022-08-22T20:28:08.833Z,13.73
2022-08-22T20:30:43.739Z,13.82
2022-08-22T20:33:20.973Z,14.00
2022-08-22T20:35:54.553Z,13.43
2022-08-22T20:38:32.674Z,14.07
2022-08-22T20:41:18.607Z,14.63
2022-08-22T20:43:52.293Z,15.35
2022-08-22T20:46:58.046Z,14.88
2022-08-22T20:49:46.389Z,14.93
2022-08-22T20:52:35.754Z,15.65
2022-08-22T20:55:19.689Z,15.73
2022-08-22T20:57:57.450Z,15.88
2022-08-22T21:00:47.850Z,15.55
2022-08-22T21:03:34.993Z,15.65
2022-08-22T21:06:18.753Z,15.85
2022-08-22T21:11:40.994Z,15.65
2022-08-22T21:14:24.773Z,15.77
2022-08-22T21:19:25.833Z,15.88
2022-08-22T21:21:53.756Z,16.38
2022-08-22T21:24:21.212Z,15.63
2022-08-22T21:26:56.353Z,16.20
2022-08-22T21:29:32.410Z,15.85
2022-08-22T21:32:11.888Z,15.85
2022-08-22T21:34:45.712Z,15.48
2022-08-22T21:37:17.189Z,16.10
2022-08-22T21:39:51.429Z,16.63
2022-08-22T21:42:28.475Z,16.65
2022-08-22T21:45:00.869Z,16.42
2022-08-22T21:47:30.606Z,17.20
2022-08-22T21:50:19.252Z,16.88
2022-08-22T21:52:55.588Z,16.10
2022-08-22T21:55:39.737Z,16.73
2022-08-22T21:58:32.603Z,17.10
2022-08-22T22:01:31.446Z,16.23
2022-08-22T22:03:59.806Z,17.17
2022-08-22T22:06:27.573Z,16.48
2022-08-22T22:08:55.494Z,17.02
2022-08-22T22:11:23.108Z,16.52
2022-08-22T22:13:50.507Z,15.95
2022-08-22T22:16:25.040Z,15.75
2022-08-22T22:18:52.445Z,16.10
2022-08-22T22:21:19.972Z,16.15
2022-08-22T22:23:47.552Z,17.63
2022-08-22T22:26:15.286Z,16.08
2022-08-22T22:28:50.431Z,16.80
2022-08-22T22:31:18.709Z,17.33
2022-08-22T22:33:46.523Z,17.65
2022-08-22T22:36:20.771Z,17.90
2022-08-22T22:38:51.862Z,17.42
2022-08-22T22:41:21.448Z,18.10
2022-08-22T22:43:48.832Z,18.10
2022-08-22T22:46:16.196Z,17.85
2022-08-22T22:48:43.586Z,18.00
2022-08-22T22:51:13.094Z,19.52
2022-08-22T22:53:42.892Z,18.25
2022-08-22T22:56:14.238Z,19.20
2022-08-22T22:58:43.995Z,19.20
2022-08-22T23:01:21.553Z,19.08
2022-08-22T23:03:53.755Z,19.70
2022-08-22T23:06:23.822Z,19.50
2022-08-22T23:08:51.451Z,18.02
2022-08-22T23:11:24.835Z,19.30
2022-08-22T23:13:52.553Z,20.17
2022-08-22T23:16:28.938Z,18.77
2022-08-22T23:18:56.831Z,18.95
2022-08-22T23:21:30.035Z,18.90
2022-08-22T23:23:59.142Z,19.50
2022-08-22T23:26:27.316Z,20.35
2022-08-22T23:28:55.001Z,20.30
2022-08-22T23:31:38.564Z,20.10
2022-08-22T23:34:11.780Z,21.88
2022-08-22T23:36:41.410Z,20.92
2022-08-22T23:39:10.032Z,21.30
2022-08-22T23:41:37.936Z,21.15
2022-08-22T23:44:07.365Z,20.48
2022-08-22T23:46:36.676Z,21.40
2022-08-22T23:49:06.589Z,20.48
2022-08-22T23:51:34.199Z,22.25
2022-08-22T23:54:02.991Z,22.85
2022-08-22T23:56:57.299Z,21.73
2022-08-22T23:59:30.551Z,22.38
